Sierra, Nevada
Current Conditions -  °F | °C
As of 1:35 AM on Thursday 23 Oct 2014 (Local Time) from KRTS Reporting Station
Clear Clear  
Wind Chill: 52°   Ceiling: Unl
Heat Index: 52°   Visibility: 10mi
Dew Point: 27°   Wind: 5mph
Humidity: 38%   Direction: 190°S
Pressure: 30.11"   Gusts: NA
Location:  39.7378°N, 119.889°W
Report Text: KRTS 230835Z AUTO 19004KT 10SM CLR 11/M03 A3011 RMK AO2
Loading
Personal Weather Stations






























Interactive Weather Map New forecast layout! Learn more

10-Day Weather Forecast

Advertisements
Track Severe Weather on mobile